ANZ102 YSSY-NZAA
Flight info
| Callsign | ANZ102 |
|---|---|
| Flight time | N/A |
| Altitude | 37000 |
| Route | EVONN L521 LUNBI |
| Aircraft | A21N/M-SDE2E3FGHIRWXY/LB1 |
Departure
| Time | 2026-05-06 00:27 |
|---|---|
| Airport | Sydney Kingsford Smith International Airport (YSSY) |
Arrival
| Time | N/A |
|---|---|
| Airport | Auckland International Airport (NZAA) |
| Time | Latitude | Longitude | Altitude | Speed | Heading |
|---|---|---|---|---|---|
| 2026-05-06 00:00 | -33.93863 | 151.16957 | 30 ft | 0 kts | 254° |
| 2026-05-06 00:13 | -33.93860 | 151.16968 | 30 ft | 2 kts | 253° |
| 2026-05-06 00:13 | -33.93854 | 151.16991 | 30 ft | 2 kts | 251° |
| 2026-05-06 00:13 | -33.93847 | 151.17014 | 30 ft | 2 kts | 248° |
| 2026-05-06 00:14 | -33.93839 | 151.17037 | 30 ft | 2 kts | 241° |
| 2026-05-06 00:14 | -33.93828 | 151.17056 | 30 ft | 3 kts | 222° |
| 2026-05-06 00:14 | -33.93815 | 151.17067 | 30 ft | 3 kts | 178° |
| 2026-05-06 00:14 | -33.93810 | 151.17067 | 30 ft | 16 kts | 168° |
| 2026-05-06 00:16 | -33.93837 | 151.17074 | 30 ft | 13 kts | 168° |
| 2026-05-06 00:17 | -33.93967 | 151.17136 | 30 ft | 22 kts | 122° |
| 2026-05-06 00:17 | -33.94014 | 151.17227 | 30 ft | 10 kts | 148° |
| 2026-05-06 00:17 | -33.94100 | 151.17258 | 29 ft | 19 kts | 167° |
| 2026-05-06 00:17 | -33.94278 | 151.17306 | 30 ft | 33 kts | 168° |
| 2026-05-06 00:18 | -33.94541 | 151.17373 | 31 ft | 43 kts | 167° |
| 2026-05-06 00:18 | -33.94844 | 151.17452 | 30 ft | 43 kts | 167° |
| 2026-05-06 00:18 | -33.95116 | 151.17521 | 30 ft | 37 kts | 167° |
| 2026-05-06 00:18 | -33.95350 | 151.17583 | 30 ft | 32 kts | 168° |
| 2026-05-06 00:19 | -33.95546 | 151.17634 | 30 ft | 26 kts | 166° |
| 2026-05-06 00:19 | -33.95705 | 151.17676 | 31 ft | 21 kts | 168° |
| 2026-05-06 00:19 | -33.95834 | 151.17709 | 30 ft | 17 kts | 168° |
| 2026-05-06 00:19 | -33.95942 | 151.17737 | 30 ft | 14 kts | 168° |
| 2026-05-06 00:20 | -33.96033 | 151.17761 | 30 ft | 13 kts | 168° |
| 2026-05-06 00:20 | -33.96125 | 151.17785 | 31 ft | 14 kts | 168° |
| 2026-05-06 00:20 | -33.96225 | 151.17810 | 30 ft | 15 kts | 168° |
| 2026-05-06 00:20 | -33.96320 | 151.17836 | 30 ft | 12 kts | 166° |
| 2026-05-06 00:21 | -33.96381 | 151.17853 | 30 ft | 7 kts | 167° |
| 2026-05-06 00:21 | -33.96396 | 151.17859 | 30 ft | 0 kts | 160° |
| 2026-05-06 00:22 | -33.96397 | 151.17860 | 30 ft | 2 kts | 158° |
| 2026-05-06 00:22 | -33.96432 | 151.17909 | 30 ft | 12 kts | 110° |
| 2026-05-06 00:22 | -33.96432 | 151.17941 | 30 ft | 0 kts | 83° |
| 2026-05-06 00:24 | -33.96431 | 151.17950 | 30 ft | 6 kts | 82° |
| 2026-05-06 00:25 | -33.96429 | 151.17964 | 30 ft | 0 kts | 78° |
| 2026-05-06 00:25 | -33.96379 | 151.18036 | 29 ft | 13 kts | 20° |
| 2026-05-06 00:25 | -33.96313 | 151.18031 | 30 ft | 0 kts | 348° |
| 2026-05-06 00:26 | -33.96253 | 151.18015 | 29 ft | 38 kts | 347° |
| 2026-05-06 00:27 | -33.95732 | 151.17882 | 29 ft | 113 kts | 348° |
| 2026-05-06 00:27 | -33.94752 | 151.17606 | 61 ft | 171 kts | 344° |
| 2026-05-06 00:27 | -33.93568 | 151.17310 | 916 ft | 175 kts | 349° |
| 2026-05-06 00:27 | -33.92365 | 151.17060 | 1960 ft | 176 kts | 351° |
| 2026-05-06 00:28 | -33.91103 | 151.16787 | 2782 ft | 195 kts | 351° |
| 2026-05-06 00:28 | -33.89668 | 151.16368 | 3279 ft | 233 kts | 338° |
| 2026-05-06 00:28 | -33.88278 | 151.15213 | 4189 ft | 250 kts | 322° |
| 2026-05-06 00:28 | -33.86894 | 151.13698 | 4622 ft | 289 kts | 317° |
| 2026-05-06 00:29 | -33.85396 | 151.11873 | 4932 ft | 326 kts | 315° |
| 2026-05-06 00:29 | -33.83758 | 151.09764 | 5727 ft | 348 kts | 314° |
| 2026-05-06 00:29 | -33.82183 | 151.07667 | 7746 ft | 327 kts | 313° |
| 2026-05-06 00:29 | -33.80700 | 151.05688 | 9549 ft | 311 kts | 312° |
| 2026-05-06 00:30 | -33.79279 | 151.03791 | 10991 ft | 305 kts | 311° |
| 2026-05-06 00:30 | -33.77816 | 151.01845 | 11595 ft | 324 kts | 315° |
| 2026-05-06 00:30 | -33.75898 | 151.00316 | 12160 ft | 343 kts | 338° |
| 2026-05-06 00:30 | -33.73503 | 150.99774 | 12782 ft | 362 kts | 359° |
| 2026-05-06 00:31 | -33.70983 | 151.00358 | 13442 ft | 380 kts | 20° |
| 2026-05-06 00:31 | -33.68686 | 151.02037 | 14171 ft | 394 kts | 40° |
| 2026-05-06 00:31 | -33.66949 | 151.04607 | 15008 ft | 403 kts | 59° |
| 2026-05-06 00:31 | -33.65969 | 151.07784 | 15803 ft | 412 kts | 78° |
| 2026-05-06 00:32 | -33.65871 | 151.11243 | 16611 ft | 419 kts | 97° |
| 2026-05-06 00:32 | -33.66668 | 151.14584 | 17398 ft | 424 kts | 116° |
| 2026-05-06 00:32 | -33.68308 | 151.17541 | 18194 ft | 427 kts | 134° |
| 2026-05-06 00:32 | -33.70554 | 151.19887 | 18925 ft | 430 kts | 144° |
| 2026-05-06 00:33 | -33.72977 | 151.22037 | 19624 ft | 435 kts | 146° |
| 2026-05-06 00:33 | -33.75446 | 151.24166 | 20302 ft | 440 kts | 146° |
| 2026-05-06 00:33 | -33.77947 | 151.26332 | 20977 ft | 446 kts | 146° |
| 2026-05-06 00:33 | -33.80462 | 151.28550 | 21645 ft | 451 kts | 145° |
| 2026-05-06 00:34 | -33.82942 | 151.30891 | 22332 ft | 456 kts | 142° |
| 2026-05-06 00:34 | -33.85326 | 151.33447 | 22982 ft | 462 kts | 138° |
| 2026-05-06 00:34 | -33.87598 | 151.36227 | 23636 ft | 468 kts | 134° |
| 2026-05-06 00:34 | -33.89751 | 151.39187 | 24215 ft | 473 kts | 131° |
| 2026-05-06 00:35 | -33.91807 | 151.42308 | 24791 ft | 477 kts | 128° |
| 2026-05-06 00:35 | -33.93763 | 151.45541 | 25372 ft | 481 kts | 126° |
| 2026-05-06 00:35 | -33.95651 | 151.48890 | 25946 ft | 485 kts | 124° |
| 2026-05-06 00:35 | -33.97475 | 151.52326 | 26512 ft | 489 kts | 122° |
| 2026-05-06 00:36 | -33.99241 | 151.55826 | 27205 ft | 489 kts | 121° |
| 2026-05-06 00:36 | -34.00948 | 151.59356 | 28007 ft | 487 kts | 120° |
| 2026-05-06 00:36 | -34.02609 | 151.62909 | 28795 ft | 485 kts | 120° |
| 2026-05-06 00:36 | -34.04225 | 151.66466 | 29592 ft | 483 kts | 119° |
| 2026-05-06 00:37 | -34.05807 | 151.70034 | 30346 ft | 482 kts | 118° |
| 2026-05-06 00:37 | -34.07364 | 151.73614 | 30915 ft | 482 kts | 118° |
| 2026-05-06 00:37 | -34.08901 | 151.77211 | 31419 ft | 484 kts | 117° |
| 2026-05-06 00:37 | -34.10428 | 151.80834 | 31941 ft | 485 kts | 117° |
| 2026-05-06 00:38 | -34.11945 | 151.84473 | 32450 ft | 486 kts | 117° |
| 2026-05-06 00:38 | -34.13454 | 151.88128 | 32951 ft | 487 kts | 116° |
| 2026-05-06 00:38 | -34.14937 | 151.91750 | 33436 ft | 488 kts | 116° |
| 2026-05-06 00:38 | -34.16454 | 151.95481 | 33932 ft | 489 kts | 116° |
| 2026-05-06 00:39 | -34.17928 | 151.99128 | 34365 ft | 490 kts | 116° |
| 2026-05-06 00:39 | -34.19365 | 152.02859 | 34743 ft | 491 kts | 112° |
| 2026-05-06 00:39 | -34.20628 | 152.06703 | 35103 ft | 493 kts | 110° |
| 2026-05-06 00:39 | -34.21815 | 152.10595 | 35459 ft | 494 kts | 109° |
| 2026-05-06 00:40 | -34.22971 | 152.14509 | 35811 ft | 495 kts | 109° |
| 2026-05-06 00:40 | -34.24116 | 152.18447 | 36157 ft | 497 kts | 108° |
| 2026-05-06 00:40 | -34.25253 | 152.22386 | 36492 ft | 498 kts | 108° |
| 2026-05-06 00:40 | -34.26393 | 152.26346 | 36827 ft | 499 kts | 108° |
| 2026-05-06 00:41 | -34.27525 | 152.30288 | 37031 ft | 493 kts | 108° |
| 2026-05-06 00:41 | -34.29778 | 152.38150 | 37158 ft | 499 kts | 108° |
| 2026-05-06 00:42 | -34.31690 | 152.44831 | 37178 ft | 503 kts | 108° |
| 2026-05-06 00:42 | -34.34341 | 152.54092 | 37176 ft | 499 kts | 108° |
| 2026-05-06 00:43 | -34.36607 | 152.62024 | 37179 ft | 499 kts | 108° |
| 2026-05-06 00:43 | -34.38880 | 152.69995 | 37177 ft | 502 kts | 108° |
| 2026-05-06 00:44 | -34.41150 | 152.77973 | 37179 ft | 500 kts | 108° |
| 2026-05-06 00:44 | -34.43409 | 152.85926 | 37181 ft | 500 kts | 108° |
| 2026-05-06 00:45 | -34.45672 | 152.93917 | 37180 ft | 502 kts | 108° |
| 2026-05-06 00:45 | -34.47931 | 153.01915 | 37179 ft | 501 kts | 108° |
| 2026-05-06 00:46 | -34.50179 | 153.09894 | 37176 ft | 500 kts | 108° |
| 2026-05-06 00:46 | -34.52425 | 153.17888 | 37179 ft | 501 kts | 108° |
| 2026-05-06 00:47 | -34.54670 | 153.25897 | 37180 ft | 502 kts | 108° |
| 2026-05-06 00:47 | -34.56531 | 153.32554 | 37179 ft | 501 kts | 108° |
| 2026-05-06 00:48 | -34.58760 | 153.40552 | 37177 ft | 500 kts | 108° |
| 2026-05-06 00:48 | -34.60984 | 153.48552 | 37181 ft | 501 kts | 107° |
| 2026-05-06 00:49 | -34.63578 | 153.57914 | 37181 ft | 500 kts | 107° |
| 2026-05-06 00:49 | -34.65790 | 153.65920 | 37181 ft | 499 kts | 107° |
| 2026-05-06 00:50 | -34.67622 | 153.72569 | 37177 ft | 500 kts | 107° |
| 2026-05-06 00:50 | -34.69823 | 153.80582 | 37178 ft | 501 kts | 107° |
| 2026-05-06 00:51 | -34.72024 | 153.88612 | 37168 ft | 500 kts | 107° |
| 2026-05-06 00:51 | -34.74213 | 153.96625 | 37172 ft | 499 kts | 107° |
| 2026-05-06 00:52 | -34.76397 | 154.04645 | 37173 ft | 500 kts | 107° |
| 2026-05-06 00:52 | -34.78583 | 154.12693 | 37167 ft | 501 kts | 107° |
| 2026-05-06 00:53 | -34.80761 | 154.20734 | 37170 ft | 500 kts | 107° |
| 2026-05-06 00:53 | -34.82915 | 154.28713 | 37166 ft | 500 kts | 107° |
| 2026-05-06 00:54 | -34.85082 | 154.36765 | 37166 ft | 501 kts | 107° |
| 2026-05-06 00:54 | -34.87244 | 154.44823 | 37168 ft | 500 kts | 107° |
| 2026-05-06 00:55 | -34.89397 | 154.52871 | 37165 ft | 499 kts | 107° |
| 2026-05-06 00:55 | -34.91545 | 154.60925 | 37164 ft | 500 kts | 107° |
| 2026-05-06 00:56 | -34.93690 | 154.68998 | 37165 ft | 501 kts | 107° |
| 2026-05-06 00:56 | -34.95827 | 154.77061 | 37165 ft | 499 kts | 106° |
| 2026-05-06 00:57 | -34.97954 | 154.85117 | 37161 ft | 499 kts | 106° |
| 2026-05-06 00:57 | -35.00080 | 154.93195 | 37158 ft | 500 kts | 106° |
| 2026-05-06 00:58 | -35.02202 | 155.01275 | 37154 ft | 500 kts | 106° |
| 2026-05-06 00:58 | -35.04319 | 155.09343 | 37157 ft | 499 kts | 106° |
| 2026-05-06 00:59 | -35.06431 | 155.17414 | 37155 ft | 500 kts | 106° |
| 2026-05-06 00:59 | -35.08540 | 155.25506 | 37157 ft | 500 kts | 106° |
| 2026-05-06 01:00 | -35.10643 | 155.33598 | 37152 ft | 499 kts | 106° |
| 2026-05-06 01:00 | -35.12722 | 155.41628 | 37156 ft | 499 kts | 106° |
| 2026-05-06 01:01 | -35.14811 | 155.49721 | 37153 ft | 500 kts | 106° |
| 2026-05-06 01:01 | -35.16897 | 155.57829 | 37150 ft | 500 kts | 105° |
| 2026-05-06 01:02 | -35.18975 | 155.65936 | 37150 ft | 499 kts | 105° |
| 2026-05-06 01:02 | -35.21045 | 155.74035 | 37151 ft | 499 kts | 105° |
| 2026-05-06 01:03 | -35.23111 | 155.82149 | 37148 ft | 500 kts | 105° |
| 2026-05-06 01:03 | -35.25173 | 155.90265 | 37146 ft | 499 kts | 105° |
| 2026-05-06 01:04 | -35.27225 | 155.98375 | 37142 ft | 499 kts | 105° |
| 2026-05-06 01:04 | -35.29276 | 156.06502 | 37144 ft | 501 kts | 105° |
| 2026-05-06 01:05 | -35.31326 | 156.14651 | 37146 ft | 500 kts | 105° |
| 2026-05-06 01:05 | -35.33363 | 156.22777 | 37143 ft | 499 kts | 105° |
| 2026-05-06 01:06 | -35.35380 | 156.30847 | 37146 ft | 499 kts | 105° |
| 2026-05-06 01:06 | -35.37423 | 156.39051 | 37141 ft | 501 kts | 105° |
| 2026-05-06 01:07 | -35.39435 | 156.47154 | 37137 ft | 500 kts | 105° |
| 2026-05-06 01:07 | -35.41451 | 156.55298 | 37135 ft | 499 kts | 105° |
| 2026-05-06 01:08 | -35.43463 | 156.63453 | 37136 ft | 501 kts | 105° |
| 2026-05-06 01:08 | -35.45473 | 156.71630 | 37132 ft | 501 kts | 105° |
| 2026-05-06 01:09 | -35.47477 | 156.79799 | 37136 ft | 500 kts | 105° |
| 2026-05-06 01:09 | -35.49473 | 156.87969 | 37130 ft | 500 kts | 105° |
| 2026-05-06 01:10 | -35.51466 | 156.96157 | 37128 ft | 501 kts | 104° |
| 2026-05-06 01:10 | -35.53456 | 157.04352 | 37126 ft | 500 kts | 104° |
| 2026-05-06 01:11 | -35.55435 | 157.12530 | 37129 ft | 500 kts | 104° |
| 2026-05-06 01:11 | -35.57411 | 157.20726 | 37121 ft | 501 kts | 104° |
| 2026-05-06 01:12 | -35.59384 | 157.28933 | 37116 ft | 501 kts | 104° |
| 2026-05-06 01:12 | -35.61349 | 157.37136 | 37127 ft | 500 kts | 104° |
| 2026-05-06 01:13 | -35.63292 | 157.45276 | 37123 ft | 500 kts | 104° |
| 2026-05-06 01:13 | -35.65247 | 157.53493 | 37113 ft | 501 kts | 104° |
| 2026-05-06 01:14 | -35.68168 | 157.65823 | 37123 ft | 499 kts | 104° |
| 2026-05-06 01:14 | -35.70104 | 157.74027 | 37112 ft | 500 kts | 104° |
| 2026-05-06 01:15 | -35.72036 | 157.82248 | 37115 ft | 501 kts | 104° |
| 2026-05-06 01:15 | -35.73962 | 157.90471 | 37115 ft | 500 kts | 104° |
| 2026-05-06 01:16 | -35.75878 | 157.98685 | 37116 ft | 499 kts | 104° |
| 2026-05-06 01:16 | -35.77720 | 158.06919 | 37113 ft | 499 kts | 101° |
| 2026-05-06 01:17 | -35.79276 | 158.15243 | 37109 ft | 498 kts | 99° |
| 2026-05-06 01:17 | -35.80742 | 158.23574 | 37110 ft | 497 kts | 99° |
| 2026-05-06 01:18 | -35.82178 | 158.31898 | 37113 ft | 497 kts | 99° |
| 2026-05-06 01:18 | -35.83604 | 158.40240 | 37109 ft | 498 kts | 99° |
| 2026-05-06 01:19 | -35.85023 | 158.48583 | 37107 ft | 497 kts | 99° |
| 2026-05-06 01:19 | -35.86431 | 158.56909 | 37107 ft | 496 kts | 98° |
| 2026-05-06 01:20 | -35.87834 | 158.65242 | 37105 ft | 497 kts | 98° |
| 2026-05-06 01:20 | -35.89232 | 158.73590 | 37103 ft | 497 kts | 98° |
| 2026-05-06 01:21 | -35.90624 | 158.81934 | 37105 ft | 496 kts | 98° |
| 2026-05-06 01:21 | -35.92008 | 158.90269 | 37104 ft | 496 kts | 98° |
| 2026-05-06 01:22 | -35.93378 | 158.98564 | 37103 ft | 497 kts | 98° |
| 2026-05-06 01:22 | -35.94753 | 159.06922 | 37102 ft | 497 kts | 98° |
| 2026-05-06 01:23 | -35.96119 | 159.15268 | 37099 ft | 496 kts | 98° |
| 2026-05-06 01:23 | -35.97480 | 159.23620 | 37100 ft | 497 kts | 98° |
| 2026-05-06 01:24 | -35.98837 | 159.31982 | 37100 ft | 497 kts | 98° |
| 2026-05-06 01:24 | -36.00187 | 159.40350 | 37090 ft | 496 kts | 98° |
| 2026-05-06 01:25 | -36.01527 | 159.48692 | 37092 ft | 495 kts | 98° |
| 2026-05-06 01:25 | -36.02863 | 159.57053 | 37093 ft | 496 kts | 98° |
| 2026-05-06 01:26 | -36.04194 | 159.65419 | 37095 ft | 496 kts | 98° |
| 2026-05-06 01:26 | -36.05517 | 159.73768 | 37088 ft | 495 kts | 98° |
| 2026-05-06 01:27 | -36.06833 | 159.82112 | 37089 ft | 495 kts | 98° |
| 2026-05-06 01:27 | -36.08143 | 159.90467 | 37091 ft | 495 kts | 98° |
| 2026-05-06 01:28 | -36.09447 | 159.98811 | 37082 ft | 493 kts | 98° |
| 2026-05-06 01:28 | -36.10742 | 160.07134 | 37088 ft | 493 kts | 98° |
| 2026-05-06 01:29 | -36.12023 | 160.15414 | 37084 ft | 493 kts | 97° |
| 2026-05-06 01:29 | -36.13305 | 160.23733 | 37079 ft | 492 kts | 97° |
| 2026-05-06 01:30 | -36.14578 | 160.32029 | 37077 ft | 490 kts | 97° |
| 2026-05-06 01:30 | -36.15842 | 160.40311 | 37076 ft | 490 kts | 97° |
| 2026-05-06 01:31 | -36.17102 | 160.48611 | 37074 ft | 490 kts | 97° |
| 2026-05-06 01:31 | -36.18353 | 160.56887 | 37070 ft | 489 kts | 97° |
| 2026-05-06 01:32 | -36.19595 | 160.65148 | 37067 ft | 488 kts | 97° |
| 2026-05-06 01:32 | -36.20834 | 160.73423 | 37068 ft | 489 kts | 97° |
| 2026-05-06 01:33 | -36.22064 | 160.81689 | 37067 ft | 487 kts | 97° |
| 2026-05-06 01:33 | -36.23287 | 160.89935 | 37065 ft | 487 kts | 97° |
| 2026-05-06 01:34 | -36.24497 | 160.98148 | 37063 ft | 488 kts | 97° |
| 2026-05-06 01:34 | -36.25710 | 161.06418 | 37056 ft | 488 kts | 96° |
| 2026-05-06 01:35 | -36.26915 | 161.14669 | 37060 ft | 486 kts | 96° |
| 2026-05-06 01:35 | -36.28115 | 161.22929 | 37054 ft | 487 kts | 96° |
| 2026-05-06 01:36 | -36.29309 | 161.31197 | 37053 ft | 487 kts | 96° |
| 2026-05-06 01:36 | -36.30497 | 161.39456 | 37047 ft | 486 kts | 96° |
| 2026-05-06 01:37 | -36.31677 | 161.47707 | 37051 ft | 486 kts | 96° |
| 2026-05-06 01:37 | -36.32852 | 161.55961 | 37045 ft | 486 kts | 96° |
| 2026-05-06 01:38 | -36.34020 | 161.64226 | 37045 ft | 486 kts | 96° |
| 2026-05-06 01:38 | -36.35182 | 161.72483 | 37046 ft | 485 kts | 96° |
| 2026-05-06 01:39 | -36.36330 | 161.80680 | 37042 ft | 486 kts | 96° |
| 2026-05-06 01:39 | -36.37482 | 161.88954 | 37037 ft | 486 kts | 96° |
| 2026-05-06 01:40 | -36.38628 | 161.97222 | 37040 ft | 485 kts | 96° |
| 2026-05-06 01:40 | -36.39766 | 162.05481 | 37041 ft | 486 kts | 96° |
| 2026-05-06 01:41 | -36.40902 | 162.13764 | 37043 ft | 487 kts | 96° |
| 2026-05-06 01:41 | -36.42032 | 162.22054 | 37041 ft | 486 kts | 95° |
| 2026-05-06 01:42 | -36.44198 | 162.38062 | 37041 ft | 487 kts | 95° |
| 2026-05-06 01:43 | -36.45312 | 162.46366 | 37039 ft | 488 kts | 95° |
| 2026-05-06 01:43 | -36.46421 | 162.54673 | 37039 ft | 487 kts | 95° |
| 2026-05-06 01:44 | -36.47524 | 162.62978 | 37041 ft | 487 kts | 95° |
| 2026-05-06 01:44 | -36.48614 | 162.71245 | 37048 ft | 488 kts | 95° |
| 2026-05-06 01:45 | -36.49707 | 162.79573 | 37041 ft | 488 kts | 95° |
| 2026-05-06 01:45 | -36.50794 | 162.87901 | 37039 ft | 488 kts | 95° |
| 2026-05-06 01:46 | -36.51872 | 162.96233 | 37040 ft | 489 kts | 95° |
| 2026-05-06 01:46 | -36.52951 | 163.04587 | 37065 ft | 491 kts | 95° |
| 2026-05-06 01:47 | -36.53848 | 163.11555 | 37078 ft | 490 kts | 95° |
| 2026-05-06 01:47 | -36.55096 | 163.21306 | 37049 ft | 487 kts | 95° |
| 2026-05-06 01:48 | -36.56155 | 163.29648 | 37044 ft | 490 kts | 95° |
| 2026-05-06 01:48 | -36.57213 | 163.38040 | 37040 ft | 491 kts | 95° |
| 2026-05-06 01:49 | -36.58087 | 163.45002 | 37049 ft | 490 kts | 95° |
| 2026-05-06 01:49 | -36.59309 | 163.54805 | 37051 ft | 491 kts | 95° |
| 2026-05-06 01:50 | -36.60173 | 163.61796 | 37054 ft | 492 kts | 95° |
| 2026-05-06 01:50 | -36.61381 | 163.71615 | 37057 ft | 490 kts | 95° |
| 2026-05-06 01:51 | -36.62407 | 163.80008 | 37060 ft | 491 kts | 95° |
| 2026-05-06 01:51 | -36.63429 | 163.88419 | 37067 ft | 492 kts | 95° |
| 2026-05-06 01:52 | -36.64446 | 163.96843 | 37068 ft | 491 kts | 95° |
| 2026-05-06 01:52 | -36.65450 | 164.05200 | 37073 ft | 491 kts | 95° |
| 2026-05-06 01:53 | -36.66454 | 164.13620 | 37075 ft | 492 kts | 95° |
| 2026-05-06 01:53 | -36.67124 | 164.19268 | 37075 ft | 492 kts | 95° |
| 2026-05-06 01:54 | -36.68287 | 164.29118 | 37076 ft | 491 kts | 95° |
| 2026-05-06 01:54 | -36.69275 | 164.37548 | 37082 ft | 492 kts | 95° |
| 2026-05-06 01:55 | -36.70258 | 164.45990 | 37082 ft | 493 kts | 95° |
| 2026-05-06 01:55 | -36.71236 | 164.54433 | 37087 ft | 492 kts | 95° |
| 2026-05-06 01:56 | -36.72202 | 164.62821 | 37086 ft | 492 kts | 95° |
| 2026-05-06 01:56 | -36.73330 | 164.72692 | 37093 ft | 493 kts | 95° |
| 2026-05-06 01:57 | -36.74127 | 164.79721 | 37097 ft | 492 kts | 95° |
| 2026-05-06 01:57 | -36.74604 | 164.83939 | 37094 ft | 492 kts | 95° |
| 2026-05-06 01:58 | -36.76027 | 164.96599 | 37101 ft | 492 kts | 95° |
| 2026-05-06 01:58 | -36.76499 | 165.00830 | 37102 ft | 492 kts | 95° |